Dades meteomassalio
Diari Summary for Setembre 10, 2017 Units:  English    Metric   Both
« Previous Day
Next Day »
Diari Semanal Mensual Anual Personalitzat
  Maxima: Minima: Mijana:
Temperatura: TemperatureC °F 12.8 °F 17.6 °F
Rosada: DewpointC °F 7.1 °F 8.4 °F
Humitat: Humidity % 41 % 56 %
Velocitat del vent: WindSpeedKMH mph 0.0 mph 38.2 mph
Racha vent: WindSpeedGustKMH mph - -
Vent:- - SW
Pressio: PressurehPa in 1011.1 in -
Pluja: 0.0 in    
Historical Graphs
 
 
Tabular Data for Setembre 10, 2017
Time Temperature Dew Point Pressure Wind Wind Speed Wind Gust Humidity Rainfall Rate (Hourly) solar Conditions
TemperatureC °F DewpointC °F PressurehPa in Calm     Humidity % HourlyPrecipMM in SolarRadiationWatts/m^2 W/m2 Conditions
00:04 15.6 °F 7.8 °F 1011.7 in WSW 35.4 mph 35.4 mph 60 % 0.0 in 0.0 W/m2 RA
00:09 15.0 °F 7.3 °F 1011.7 in SSW 29.6 mph 29.6 mph 60 % 0.0 in 0.0 W/m2 CLR
00:14 15.0 °F 7.6 °F 1011.7 in SSW 24.1 mph 24.1 mph 61 % 0.0 in 0.0 W/m2 CLR
00:19 15.0 °F 7.6 °F 1011.7 in SW 25.9 mph 25.9 mph 61 % 0.0 in 0.0 W/m2 CLR
00:24 15.0 °F 7.8 °F 1012.1 in SSW 24.1 mph 24.1 mph 62 % 0.0 in 0.0 W/m2 CLR
00:29 15.0 °F 7.8 °F 1012.1 in SSW 22.2 mph 22.2 mph 62 % 0.0 in 0.0 W/m2 CLR
00:34 14.4 °F 7.2 °F 1012.1 in SSW 25.9 mph 25.9 mph 62 % 0.0 in 0.0 W/m2 CLR
00:39 14.4 °F 7.5 °F 1011.7 in SSW 29.6 mph 29.6 mph 63 % 0.0 in 0.0 W/m2 CLR
00:44 14.4 °F 7.5 °F 1011.7 in SSW 33.3 mph 33.3 mph 63 % 0.0 in 0.0 W/m2 CLR
00:49 14.4 °F 7.5 °F 1011.7 in SSW 27.8 mph 27.8 mph 63 % 0.0 in 0.0 W/m2 CLR
00:54 14.4 °F 7.7 °F 1011.7 in SW 25.7 mph 25.7 mph 64 % 0.0 in 0.0 W/m2 CLR
00:59 14.4 °F 7.7 °F 1011.7 in SSW 18.5 mph 18.5 mph 64 % 0.0 in 0.0 W/m2 CLR
01:04 14.4 °F 7.7 °F 1011.4 in SSW 31.5 mph 31.5 mph 64 % 0.0 in 0.0 W/m2 CLR
01:09 14.4 °F 7.7 °F 1011.4 in WSW 35.2 mph 35.2 mph 64 % 0.0 in 0.0 W/m2 CLR
01:15 14.4 °F 7.9 °F 1011.4 in SSW 38.6 mph 38.6 mph 65 % 0.0 in 0.0 W/m2 CLR
01:20 14.4 °F 7.9 °F 1011.4 in SSW 37.0 mph 37.0 mph 65 % 0.0 in 0.0 W/m2 CLR
01:25 14.4 °F 7.9 °F 1011.4 in SSW 35.2 mph 35.2 mph 65 % 0.0 in 0.0 W/m2 CLR
01:30 14.4 °F 7.9 °F 1011.4 in SSW 38.9 mph 38.9 mph 65 % 0.0 in 0.0 W/m2 CLR
01:35 14.4 °F 7.9 °F 1011.4 in SW 42.6 mph 42.6 mph 65 % 0.0 in 0.0 W/m2 CLR
01:40 14.4 °F 7.9 °F 1011.7 in SW 25.7 mph 25.7 mph 65 % 0.0 in 0.0 W/m2 CLR
01:45 14.4 °F 8.2 °F 1011.7 in SSW 35.2 mph 35.2 mph 66 % 0.0 in 0.0 W/m2 CLR
01:50 14.4 °F 8.2 °F 1011.4 in West 29.6 mph 29.6 mph 66 % 0.0 in 0.0 W/m2 CLR
01:55 14.4 °F 8.4 °F 1011.4 in WSW 29.6 mph 29.6 mph 67 % 0.0 in 0.0 W/m2 CLR
02:00 14.4 °F 8.4 °F 1011.4 in SW 42.6 mph 42.6 mph 67 % 0.0 in 0.0 W/m2 CLR
02:05 13.9 °F 7.6 °F 1011.1 in SW 42.6 mph 42.6 mph 66 % 0.0 in 0.0 W/m2 CLR
02:10 13.9 °F 7.6 °F 1011.1 in SSW 37.0 mph 37.0 mph 66 % 0.0 in 0.0 W/m2 CLR
02:12 13.9 °F 7.6 °F 1011.1 in SSW 40.7 mph 40.7 mph 66 % 0.0 in 0.0 W/m2 CLR
02:17 14.4 °F 8.2 °F 1011.1 in SW 44.4 mph 44.4 mph 66 % 0.0 in 0.0 W/m2 CLR
02:22 13.9 °F 7.6 °F 1011.1 in SSW 44.4 mph 44.4 mph 66 % 0.0 in 0.0 W/m2 CLR
02:27 13.9 °F 7.6 °F 1011.1 in SW 46.3 mph 46.3 mph 66 % 0.0 in 0.0 W/m2 CLR
02:32 14.4 °F 8.2 °F 1011.4 in SW 38.9 mph 38.9 mph 66 % 0.0 in 0.0 W/m2 CLR
02:37 13.9 °F 7.6 °F 1011.4 in SW 55.5 mph 55.5 mph 66 % 0.0 in 0.0 W/m2 CLR
02:42 14.4 °F 8.2 °F 1011.4 in SW 42.6 mph 42.6 mph 66 % 0.0 in 0.0 W/m2 CLR
02:47 13.9 °F 7.8 °F 1011.4 in SW 46.3 mph 46.3 mph 67 % 0.0 in 0.0 W/m2 CLR
02:52 13.9 °F 7.8 °F 1011.1 in SW 46.3 mph 46.3 mph 67 % 0.0 in 0.0 W/m2 CLR
02:57 13.9 °F 7.8 °F 1011.4 in SW 46.3 mph 46.3 mph 67 % 0.0 in 0.0 W/m2 CLR
03:02 13.9 °F 7.8 °F 1011.4 in SSW 33.8 mph 33.8 mph 67 % 0.0 in 0.0 W/m2 CLR
03:07 13.9 °F 7.8 °F 1011.4 in SSW 42.6 mph 42.6 mph 67 % 0.0 in 0.0 W/m2 CLR
03:12 13.9 °F 7.8 °F 1011.7 in SSW 40.2 mph 40.2 mph 67 % 0.0 in 0.0 W/m2 CLR
03:17 13.9 °F 7.8 °F 1011.7 in SSW 35.2 mph 35.2 mph 67 % 0.0 in 0.0 W/m2 CLR
03:22 13.9 °F 7.8 °F 1011.7 in SW 37.0 mph 37.0 mph 67 % 0.0 in 0.0 W/m2 CLR
03:27 13.9 °F 8.1 °F 1011.7 in SSW 35.2 mph 35.2 mph 68 % 0.0 in 0.0 W/m2 CLR
03:32 13.9 °F 8.1 °F 1011.7 in SW 27.8 mph 27.8 mph 68 % 0.0 in 0.0 W/m2 CLR
03:37 13.9 °F 8.1 °F 1011.7 in WSW 24.1 mph 24.1 mph 68 % 0.0 in 0.0 W/m2 CLR
03:42 13.9 °F 8.1 °F 1011.7 in SW 31.5 mph 31.5 mph 68 % 0.0 in 0.0 W/m2 CLR
03:47 13.9 °F 8.1 °F 1011.7 in SW 27.8 mph 27.8 mph 68 % 0.0 in 0.0 W/m2 CLR
03:52 13.3 °F 7.6 °F 1011.4 in West 37.0 mph 37.0 mph 68 % 0.0 in 0.0 W/m2 CLR
03:57 13.9 °F 8.1 °F 1011.4 in SSW 20.4 mph 20.4 mph 68 % 0.0 in 0.0 W/m2 CLR
04:02 13.3 °F 7.6 °F 1011.4 in SW 25.9 mph 25.9 mph 68 % 0.0 in 0.0 W/m2 CLR
04:07 13.3 °F 7.6 °F 1011.4 in SW 29.6 mph 29.6 mph 68 % 0.0 in 0.0 W/m2 CLR
04:12 13.3 °F 7.3 °F 1011.4 in SW 32.2 mph 32.2 mph 67 % 0.0 in 0.0 W/m2 CLR
04:17 13.3 °F 7.3 °F 1011.4 in SW 44.4 mph 44.4 mph 67 % 0.0 in 0.0 W/m2 CLR
04:22 13.9 °F 7.8 °F 1011.4 in WSW 42.6 mph 42.6 mph 67 % 0.0 in 0.0 W/m2 CLR
04:27 13.3 °F 7.3 °F 1011.7 in SW 31.5 mph 31.5 mph 67 % 0.0 in 0.0 W/m2 CLR
04:32 13.9 °F 7.8 °F 1011.4 in SW 33.8 mph 33.8 mph 67 % 0.0 in 0.0 W/m2 CLR
04:37 13.3 °F 7.3 °F 1011.7 in SW 31.5 mph 31.5 mph 67 % 0.0 in 0.0 W/m2 CLR
04:42 13.3 °F 7.3 °F 1011.7 in SW 35.2 mph 35.2 mph 67 % 0.0 in 0.0 W/m2 CLR
04:47 13.3 °F 7.6 °F 1011.7 in SSW 31.5 mph 31.5 mph 68 % 0.0 in 0.0 W/m2 CLR
04:52 13.3 °F 7.6 °F 1011.7 in SW 31.5 mph 31.5 mph 68 % 0.0 in 0.0 W/m2 CLR
04:57 13.3 °F 7.6 °F 1011.7 in SSW 40.7 mph 40.7 mph 68 % 0.0 in 0.0 W/m2 CLR
05:02 13.3 °F 7.6 °F 1011.7 in SW 31.5 mph 31.5 mph 68 % 0.0 in 0.0 W/m2 CLR
05:07 13.3 °F 7.6 °F 1011.7 in SSW 25.9 mph 25.9 mph 68 % 0.0 in 0.0 W/m2 CLR
05:12 13.3 °F 7.6 °F 1011.7 in SW 33.3 mph 33.3 mph 68 % 0.0 in 0.0 W/m2 CLR
05:17 13.3 °F 7.6 °F 1011.7 in SW 31.5 mph 31.5 mph 68 % 0.0 in 0.0 W/m2 CLR
05:22 13.3 °F 7.6 °F 1011.7 in SW 38.6 mph 38.6 mph 68 % 0.0 in 0.0 W/m2 CLR
05:27 13.3 °F 7.6 °F 1011.7 in SW 29.6 mph 29.6 mph 68 % 0.0 in 0.0 W/m2 CLR
05:32 13.3 °F 7.6 °F 1011.7 in SW 29.6 mph 29.6 mph 68 % 0.0 in 0.0 W/m2 CLR
05:37 13.3 °F 7.8 °F 1011.7 in SW 30.6 mph 30.6 mph 69 % 0.0 in 0.0 W/m2 CLR
05:42 13.3 °F 7.8 °F 1011.7 in West 27.8 mph 27.8 mph 69 % 0.0 in 0.0 W/m2 CLR
05:48 13.3 °F 7.8 °F 1012.1 in SW 31.5 mph 31.5 mph 69 % 0.0 in 0.0 W/m2 CLR
05:53 13.3 °F 7.8 °F 1012.1 in SW 24.1 mph 24.1 mph 69 % 0.0 in 0.0 W/m2 CLR
05:58 13.3 °F 7.8 °F 1012.1 in SSW 27.8 mph 27.8 mph 69 % 0.0 in 0.0 W/m2 CLR
06:03 12.8 °F 7.2 °F 1012.1 in WSW 25.9 mph 25.9 mph 69 % 0.0 in 0.0 W/m2 CLR
06:08 13.3 °F 7.8 °F 1012.1 in WSW 31.5 mph 31.5 mph 69 % 0.0 in 0.0 W/m2 CLR
06:13 12.8 °F 7.2 °F 1012.1 in SW 32.2 mph 32.2 mph 69 % 0.0 in 0.0 W/m2 CLR
06:18 13.3 °F 7.8 °F 1011.7 in SW 31.5 mph 31.5 mph 69 % 0.0 in 0.0 W/m2 CLR
06:23 13.3 °F 7.8 °F 1011.7 in SSW 38.9 mph 38.9 mph 69 % 0.0 in 0.0 W/m2 CLR
06:28 13.3 °F 7.8 °F 1011.7 in SW 33.3 mph 33.3 mph 69 % 0.0 in 0.0 W/m2 CLR
06:33 13.3 °F 7.8 °F 1011.7 in SW 42.6 mph 42.6 mph 69 % 0.0 in 0.0 W/m2 CLR
06:38 13.3 °F 7.8 °F 1011.7 in SW 46.3 mph 46.3 mph 69 % 0.0 in 0.0 W/m2 CLR
06:43 13.3 °F 7.8 °F 1012.1 in SW 42.6 mph 42.6 mph 69 % 0.0 in 0.0 W/m2 CLR
06:48 13.3 °F 7.8 °F 1012.1 in WSW 31.5 mph 31.5 mph 69 % 0.0 in 0.0 W/m2 CLR
06:53 13.3 °F 7.8 °F 1012.1 in SW 51.8 mph 51.8 mph 69 % 0.0 in 0.0 W/m2 CLR
06:58 13.3 °F 7.8 °F 1012.4 in West 38.9 mph 38.9 mph 69 % 0.0 in 0.0 W/m2 CLR
07:03 13.3 °F 7.8 °F 1012.1 in WSW 38.9 mph 38.9 mph 69 % 0.0 in 0.0 W/m2 CLR
07:08 13.3 °F 7.8 °F 1012.4 in WSW 37.0 mph 37.0 mph 69 % 0.0 in 0.0 W/m2 CLR
07:13 13.3 °F 7.8 °F 1012.4 in SW 27.8 mph 27.8 mph 69 % 0.0 in 0.0 W/m2 CLR
07:18 13.3 °F 8.0 °F 1012.4 in WSW 44.4 mph 44.4 mph 70 % 0.0 in 0.0 W/m2 CLR
07:23 13.3 °F 8.0 °F 1012.4 in West 31.5 mph 31.5 mph 70 % 0.0 in 0.0 W/m2 CLR
07:28 13.3 °F 8.0 °F 1012.4 in SW 35.2 mph 35.2 mph 70 % 0.0 in 0.0 W/m2 OVC
07:33 13.3 °F 8.0 °F 1012.8 in SW 31.5 mph 31.5 mph 70 % 0.0 in 0.0 W/m2 OVC
07:38 13.3 °F 8.0 °F 1012.8 in SW 32.2 mph 32.2 mph 70 % 0.0 in 7.0 W/m2 BKN
07:43 13.3 °F 8.0 °F 1012.8 in SW 35.2 mph 35.2 mph 70 % 0.0 in 11.0 W/m2 BKN
07:48 13.3 °F 8.0 °F 1012.8 in SSW 31.5 mph 31.5 mph 70 % 0.0 in 14.0 W/m2 BKN
07:53 13.3 °F 8.0 °F 1012.8 in SW 27.8 mph 27.8 mph 70 % 0.0 in 18.0 W/m2 BKN
07:58 13.3 °F 8.0 °F 1012.8 in WSW 46.7 mph 46.7 mph 70 % 0.0 in 19.0 W/m2 BKN
08:03 13.3 °F 8.0 °F 1012.8 in WSW 42.6 mph 42.6 mph 70 % 0.0 in 25.0 W/m2 BKN
08:08 13.3 °F 8.0 °F 1012.8 in SW 37.0 mph 37.0 mph 70 % 0.0 in 32.0 W/m2 BKN
08:13 13.3 °F 8.0 °F 1012.8 in SW 32.2 mph 32.2 mph 70 % 0.0 in 44.0 W/m2 BKN
08:18 13.3 °F 8.0 °F 1012.8 in SSW 35.2 mph 35.2 mph 70 % 0.0 in 54.0 W/m2 SCT
08:23 13.9 °F 8.3 °F 1013.1 in SW 31.5 mph 31.5 mph 69 % 0.0 in 63.0 W/m2 SCT
08:28 13.9 °F 8.3 °F 1013.1 in SW 35.4 mph 35.4 mph 69 % 0.0 in 77.0 W/m2 FEW
08:33 13.9 °F 8.3 °F 1013.1 in SW 42.6 mph 42.6 mph 69 % 0.0 in 54.0 W/m2 FEW
08:38 13.9 °F 8.3 °F 1013.1 in WSW 37.0 mph 37.0 mph 69 % 0.0 in 46.0 W/m2 SCT
08:43 13.9 °F 8.1 °F 1013.1 in SW 35.4 mph 35.4 mph 68 % 0.0 in 40.0 W/m2 BKN
08:48 13.9 °F 8.1 °F 1013.1 in WSW 31.5 mph 31.5 mph 68 % 0.0 in 42.0 W/m2 BKN
08:53 14.4 °F 8.6 °F 1013.4 in WSW 38.9 mph 38.9 mph 68 % 0.0 in 165.0 W/m2 SCT
08:58 14.4 °F 8.4 °F 1013.1 in SW 37.0 mph 37.0 mph 67 % 0.0 in 185.0 W/m2 CLR
09:03 14.4 °F 8.4 °F 1013.1 in SSW 37.0 mph 37.0 mph 67 % 0.0 in 202.0 W/m2 CLR
09:08 14.4 °F 8.4 °F 1013.4 in WSW 35.4 mph 35.4 mph 67 % 0.0 in 218.0 W/m2 CLR
09:13 15.0 °F 8.7 °F 1013.1 in WSW 25.9 mph 25.9 mph 66 % 0.0 in 236.0 W/m2 CLR
09:18 15.0 °F 8.4 °F 1013.1 in South 27.8 mph 27.8 mph 65 % 0.0 in 255.0 W/m2 CLR
09:23 15.0 °F 8.4 °F 1013.1 in SW 51.8 mph 51.8 mph 65 % 0.0 in 267.0 W/m2 CLR
09:28 15.0 °F 8.2 °F 1013.1 in SW 37.0 mph 37.0 mph 64 % 0.0 in 285.0 W/m2 CLR
09:33 15.6 °F 8.8 °F 1013.4 in WSW 48.1 mph 48.1 mph 64 % 0.0 in 301.0 W/m2 CLR
09:38 15.6 °F 8.8 °F 1013.4 in SW 46.3 mph 46.3 mph 64 % 0.0 in 315.0 W/m2 CLR
09:43 15.6 °F 8.6 °F 1013.4 in WSW 55.5 mph 55.5 mph 63 % 0.0 in 332.0 W/m2 CLR
09:48 15.6 °F 8.6 °F 1013.4 in SW 38.6 mph 38.6 mph 63 % 0.0 in 350.0 W/m2 CLR
09:53 16.1 °F 9.1 °F 1013.4 in WSW 33.8 mph 33.8 mph 63 % 0.0 in 362.0 W/m2 CLR
09:58 16.1 °F 8.8 °F 1013.4 in SW 42.6 mph 42.6 mph 62 % 0.0 in 381.0 W/m2 CLR
10:03 16.1 °F 8.6 °F 1013.4 in WSW 50.0 mph 50.0 mph 61 % 0.0 in 399.0 W/m2 CLR
10:08 16.1 °F 8.6 °F 1013.8 in SW 51.8 mph 51.8 mph 61 % 0.0 in 413.0 W/m2 CLR
10:13 16.7 °F 9.1 °F 1013.8 in West 49.9 mph 49.9 mph 61 % 0.0 in 432.0 W/m2 CLR
10:18 16.7 °F 9.1 °F 1013.8 in SW 38.6 mph 38.6 mph 61 % 0.0 in 443.0 W/m2 CLR
10:23 16.7 °F 8.6 °F 1013.8 in WSW 57.9 mph 57.9 mph 59 % 0.0 in 459.0 W/m2 CLR
10:28 16.7 °F 8.6 °F 1013.4 in WSW 38.6 mph 38.6 mph 59 % 0.0 in 471.0 W/m2 CLR
10:33 17.2 °F 8.9 °F 1014.1 in WSW 53.7 mph 53.7 mph 58 % 0.0 in 489.0 W/m2 CLR
10:38 17.2 °F 8.9 °F 1013.8 in WSW 50.0 mph 50.0 mph 58 % 0.0 in 501.0 W/m2 CLR
10:43 17.8 °F 9.2 °F 1013.8 in WSW 62.8 mph 62.8 mph 57 % 0.0 in 519.0 W/m2 CLR
10:48 17.8 °F 9.2 °F 1014.1 in WSW 46.3 mph 46.3 mph 57 % 0.0 in 575.0 W/m2 CLR
10:53 17.8 °F 9.2 °F 1013.8 in SW 59.2 mph 59.2 mph 57 % 0.0 in 548.0 W/m2 CLR
10:58 17.8 °F 9.4 °F 1013.8 in WSW 42.6 mph 42.6 mph 58 % 0.0 in 555.0 W/m2 CLR
11:03 18.3 °F 9.7 °F 1013.8 in SW 53.7 mph 53.7 mph 57 % 0.0 in 496.0 W/m2 CLR
11:08 18.3 °F 9.7 °F 1013.8 in WSW 59.2 mph 59.2 mph 57 % 0.0 in 587.0 W/m2 CLR
11:13 18.3 °F 9.4 °F 1013.8 in WSW 55.5 mph 55.5 mph 56 % 0.0 in 594.0 W/m2 CLR
11:18 18.3 °F 9.4 °F 1013.8 in SW 50.0 mph 50.0 mph 56 % 0.0 in 608.0 W/m2 CLR
11:23 18.9 °F 9.9 °F 1013.8 in WSW 55.5 mph 55.5 mph 56 % 0.0 in 626.0 W/m2 CLR
11:28 18.9 °F 9.7 °F 1013.8 in WSW 62.9 mph 62.9 mph 55 % 0.0 in 638.0 W/m2 CLR
11:33 18.9 °F 9.4 °F 1013.8 in SW 46.3 mph 46.3 mph 54 % 0.0 in 647.0 W/m2 CLR
11:38 18.9 °F 9.7 °F 1014.1 in WSW 57.9 mph 57.9 mph 55 % 0.0 in 675.0 W/m2 CLR
11:43 19.4 °F 9.9 °F 1014.1 in SW 61.1 mph 61.1 mph 54 % 0.0 in 680.0 W/m2 CLR
11:49 19.4 °F 9.9 °F 1013.8 in SW 55.5 mph 55.5 mph 54 % 0.0 in 682.0 W/m2 CLR
11:54 19.4 °F 9.9 °F 1013.8 in SW 70.3 mph 70.3 mph 54 % 0.0 in 694.0 W/m2 CLR
11:59 19.4 °F 9.6 °F 1013.8 in SW 55.5 mph 55.5 mph 53 % 0.0 in 700.0 W/m2 CLR
12:04 19.4 °F 9.9 °F 1013.8 in WSW 48.1 mph 48.1 mph 54 % 0.0 in 708.0 W/m2 CLR
12:09 20.0 °F 9.8 °F 1013.8 in WSW 62.9 mph 62.9 mph 52 % 0.0 in 717.0 W/m2 CLR
12:14 20.0 °F 9.8 °F 1013.8 in SW 55.5 mph 55.5 mph 52 % 0.0 in 726.0 W/m2 CLR
12:19 20.0 °F 9.8 °F 1013.8 in WSW 59.2 mph 59.2 mph 52 % 0.0 in 740.0 W/m2 CLR
12:24 20.0 °F 9.8 °F 1013.8 in WSW 59.2 mph 59.2 mph 52 % 0.0 in 751.0 W/m2 CLR
12:29 20.0 °F 9.8 °F 1014.1 in WSW 48.1 mph 48.1 mph 52 % 0.0 in 786.0 W/m2 CLR
12:34 20.0 °F 9.8 °F 1013.8 in West 42.6 mph 42.6 mph 52 % 0.0 in 768.0 W/m2 CLR
12:39 20.6 °F 10.1 °F 1014.1 in WSW 51.8 mph 51.8 mph 51 % 0.0 in 798.0 W/m2 CLR
12:44 20.6 °F 9.8 °F 1014.1 in WSW 61.1 mph 61.1 mph 50 % 0.0 in 816.0 W/m2 CLR
12:49 20.6 °F 9.8 °F 1014.1 in WSW 43.4 mph 43.4 mph 50 % 0.0 in 810.0 W/m2 CLR
12:54 21.1 °F 10.6 °F 1014.1 in WSW 51.8 mph 51.8 mph 51 % 0.0 in 803.0 W/m2 CLR
12:59 20.6 °F 9.8 °F 1014.1 in SW 51.8 mph 51.8 mph 50 % 0.0 in 752.0 W/m2 CLR
13:04 21.1 °F 10.0 °F 1014.1 in SW 51.8 mph 51.8 mph 49 % 0.0 in 793.0 W/m2 CLR
13:09 21.1 °F 10.0 °F 1013.8 in WSW 46.3 mph 46.3 mph 49 % 0.0 in 795.0 W/m2 CLR
13:14 21.1 °F 10.0 °F 1013.8 in West 44.4 mph 44.4 mph 49 % 0.0 in 810.0 W/m2 CLR
13:19 21.7 °F 10.2 °F 1013.8 in WSW 53.7 mph 53.7 mph 48 % 0.0 in 830.0 W/m2 CLR
13:24 20.6 °F 9.4 °F 1013.8 in WSW 38.9 mph 46.8 mph 49 % 0.0 in 824.0 W/m2 CLR
13:29 21.1 °F 10.0 °F 1013.8 in WSW 56.3 mph 56.3 mph 49 % 0.0 in 821.0 W/m2 CLR
13:34 21.1 °F 10.0 °F 1013.8 in WSW 49.9 mph 49.9 mph 49 % 0.0 in 831.0 W/m2 CLR
13:39 21.7 °F 10.5 °F 1013.8 in WSW 61.1 mph 61.1 mph 49 % 0.0 in 837.0 W/m2 CLR
13:44 21.1 °F 10.3 °F 1013.8 in SW 42.6 mph 42.6 mph 50 % 0.0 in 807.0 W/m2 CLR
13:49 21.1 °F 10.3 °F 1013.8 in SW 46.3 mph 46.3 mph 50 % 0.0 in 812.0 W/m2 CLR
13:54 21.7 °F 10.5 °F 1013.8 in SW 48.3 mph 48.3 mph 49 % 0.0 in 816.0 W/m2 CLR
13:59 21.7 °F 10.5 °F 1013.8 in West 49.9 mph 49.9 mph 49 % 0.0 in 814.0 W/m2 CLR
14:04 21.7 °F 10.5 °F 1013.8 in SW 50.0 mph 50.0 mph 49 % 0.0 in 810.0 W/m2 CLR
14:09 21.7 °F 9.8 °F 1013.8 in SW 61.1 mph 61.1 mph 47 % 0.0 in 812.0 W/m2 CLR
14:14 21.7 °F 9.8 °F 1014.1 in WSW 51.8 mph 51.8 mph 47 % 0.0 in 809.0 W/m2 CLR
14:19 21.7 °F 9.8 °F 1014.1 in West 64.8 mph 64.8 mph 47 % 0.0 in 809.0 W/m2 CLR
14:24 22.2 °F 10.7 °F 1014.1 in WSW 57.4 mph 57.4 mph 48 % 0.0 in 812.0 W/m2 CLR
14:29 21.7 °F 9.8 °F 1013.8 in WSW 55.5 mph 55.5 mph 47 % 0.0 in 805.0 W/m2 CLR
14:34 21.7 °F 9.8 °F 1014.1 in WSW 57.4 mph 57.4 mph 47 % 0.0 in 805.0 W/m2 CLR
14:39 22.2 °F 10.1 °F 1014.1 in WSW 59.2 mph 59.2 mph 46 % 0.0 in 846.0 W/m2 CLR
14:44 22.2 °F 10.1 °F 1013.8 in WSW 55.5 mph 55.5 mph 46 % 0.0 in 831.0 W/m2 CLR
14:49 22.2 °F 10.4 °F 1013.8 in WSW 48.3 mph 48.3 mph 47 % 0.0 in 816.0 W/m2 CLR
14:54 22.2 °F 9.7 °F 1013.8 in WSW 44.4 mph 44.4 mph 45 % 0.0 in 793.0 W/m2 CLR
14:59 21.7 °F 9.2 °F 1013.8 in SW 53.7 mph 53.7 mph 45 % 0.0 in 786.0 W/m2 CLR
15:04 22.2 °F 9.4 °F 1013.8 in WSW 48.1 mph 48.1 mph 44 % 0.0 in 779.0 W/m2 CLR
15:09 22.8 °F 10.2 °F 1013.8 in West 53.7 mph 53.7 mph 45 % 0.0 in 784.0 W/m2 CLR
15:14 22.2 °F 9.7 °F 1013.8 in SW 44.4 mph 44.4 mph 45 % 0.0 in 775.0 W/m2 CLR
15:19 22.8 °F 9.9 °F 1014.1 in West 50.0 mph 50.0 mph 44 % 0.0 in 795.0 W/m2 CLR
15:24 22.8 °F 9.9 °F 1013.8 in SW 42.6 mph 42.6 mph 44 % 0.0 in 779.0 W/m2 CLR
15:29 22.8 °F 9.9 °F 1013.8 in SW 55.5 mph 55.5 mph 44 % 0.0 in 789.0 W/m2 CLR
15:30 22.8 °F 9.9 °F 1013.8 in SW 55.5 mph 55.5 mph 44 % 0.0 in 789.0 W/m2 CLR
15:35 22.2 °F 9.7 °F 1013.8 in WSW 51.8 mph 51.8 mph 45 % 0.0 in 782.0 W/m2 CLR
15:40 22.2 °F 9.7 °F 1013.8 in WSW 61.1 mph 61.1 mph 45 % 0.0 in 731.0 W/m2 CLR
15:45 22.2 °F 9.4 °F 1013.8 in SW 48.1 mph 48.1 mph 44 % 0.0 in 714.0 W/m2 CLR
15:50 22.2 °F 9.4 °F 1013.8 in SW 44.4 mph 44.4 mph 44 % 0.0 in 714.0 W/m2 CLR
15:55 22.8 °F 10.2 °F 1013.8 in WSW 51.8 mph 51.8 mph 45 % 0.0 in 705.0 W/m2 CLR
16:00 22.2 °F 9.1 °F 1013.8 in SW 55.5 mph 55.5 mph 43 % 0.0 in 694.0 W/m2 CLR
16:05 22.2 °F 9.7 °F 1013.8 in WSW 50.0 mph 50.0 mph 45 % 0.0 in 689.0 W/m2 CLR
16:10 22.2 °F 9.7 °F 1013.8 in WSW 45.1 mph 45.1 mph 45 % 0.0 in 677.0 W/m2 CLR
16:15 22.2 °F 9.4 °F 1013.4 in West 55.5 mph 55.5 mph 44 % 0.0 in 664.0 W/m2 CLR
16:20 22.2 °F 9.4 °F 1013.4 in WSW 46.3 mph 46.3 mph 44 % 0.0 in 649.0 W/m2 CLR
16:25 22.2 °F 9.7 °F 1013.4 in WSW 40.2 mph 40.2 mph 45 % 0.0 in 647.0 W/m2 CLR
16:30 22.2 °F 9.1 °F 1013.4 in SW 62.9 mph 62.9 mph 43 % 0.0 in 628.0 W/m2 CLR
16:35 22.2 °F 9.7 °F 1013.4 in SW 44.4 mph 44.4 mph 45 % 0.0 in 615.0 W/m2 CLR
16:40 22.8 °F 9.9 °F 1013.4 in WSW 57.4 mph 57.4 mph 44 % 0.0 in 605.0 W/m2 CLR
16:45 22.2 °F 9.4 °F 1013.8 in SW 57.4 mph 57.4 mph 44 % 0.0 in 589.0 W/m2 CLR
16:50 22.2 °F 9.4 °F 1013.4 in WSW 55.5 mph 55.5 mph 44 % 0.0 in 575.0 W/m2 CLR
16:55 21.7 °F 9.2 °F 1013.4 in West 46.3 mph 46.3 mph 45 % 0.0 in 566.0 W/m2 CLR
17:00 21.7 °F 8.9 °F 1013.4 in WSW 48.1 mph 48.1 mph 44 % 0.0 in 555.0 W/m2 CLR
17:05 21.7 °F 9.2 °F 1013.4 in SW 46.3 mph 46.3 mph 45 % 0.0 in 540.0 W/m2 CLR
17:10 21.7 °F 9.2 °F 1013.4 in West 50.0 mph 50.0 mph 45 % 0.0 in 524.0 W/m2 CLR
17:15 21.7 °F 9.2 °F 1013.4 in SW 53.7 mph 53.7 mph 45 % 0.0 in 510.0 W/m2 CLR
17:20 21.7 °F 9.2 °F 1013.4 in West 55.5 mph 55.5 mph 45 % 0.0 in 494.0 W/m2 CLR
17:25 21.7 °F 9.6 °F 1013.4 in SW 50.0 mph 50.0 mph 46 % 0.0 in 480.0 W/m2 CLR
17:30 22.2 °F 9.7 °F 1013.4 in SW 53.7 mph 53.7 mph 45 % 0.0 in 462.0 W/m2 CLR
17:35 22.2 °F 9.7 °F 1013.4 in SW 35.2 mph 35.2 mph 45 % 0.0 in 452.0 W/m2 CLR
17:40 22.2 °F 9.4 °F 1013.4 in WSW 35.2 mph 35.2 mph 44 % 0.0 in 432.0 W/m2 CLR
17:45 22.2 °F 9.1 °F 1013.8 in WSW 48.1 mph 48.1 mph 43 % 0.0 in 418.0 W/m2 CLR
17:46 22.2 °F 9.1 °F 1013.8 in SW 48.1 mph 48.1 mph 43 % 0.0 in 418.0 W/m2 CLR
17:51 22.2 °F 9.7 °F 1013.8 in West 40.7 mph 40.7 mph 45 % 0.0 in 403.0 W/m2 CLR
17:56 22.2 °F 9.4 °F 1013.8 in WSW 37.0 mph 37.0 mph 44 % 0.0 in 387.0 W/m2 CLR
18:01 21.7 °F 8.2 °F 1013.8 in WSW 48.3 mph 48.3 mph 42 % 0.0 in 367.0 W/m2 CLR
18:06 21.7 °F 8.6 °F 1013.8 in WSW 37.0 mph 37.0 mph 43 % 0.0 in 355.0 W/m2 CLR
18:11 22.2 °F 9.1 °F 1013.8 in WSW 33.3 mph 33.3 mph 43 % 0.0 in 338.0 W/m2 CLR
18:16 21.7 °F 8.2 °F 1013.8 in WSW 35.2 mph 35.2 mph 42 % 0.0 in 327.0 W/m2 CLR
18:21 21.7 °F 8.2 °F 1014.1 in SW 48.1 mph 48.1 mph 42 % 0.0 in 316.0 W/m2 CLR
18:26 21.7 °F 8.6 °F 1013.8 in SW 20.9 mph 20.9 mph 43 % 0.0 in 297.0 W/m2 CLR
18:31 21.7 °F 7.8 °F 1014.1 in WSW 33.3 mph 33.3 mph 41 % 0.0 in 283.0 W/m2 CLR
18:36 21.1 °F 7.7 °F 1014.1 in WSW 37.0 mph 37.0 mph 42 % 0.0 in 269.0 W/m2 CLR
18:41 21.1 °F 8.1 °F 1014.4 in WSW 50.0 mph 50.0 mph 43 % 0.0 in 250.0 W/m2 CLR
18:42 21.1 °F 8.1 °F 1014.1 in SW 50.0 mph 50.0 mph 43 % 0.0 in 241.0 W/m2 CLR
18:47 21.1 °F 8.1 °F 1014.1 in WSW 42.6 mph 42.6 mph 43 % 0.0 in 227.0 W/m2 CLR
18:52 21.1 °F 8.1 °F 1014.4 in SW 46.7 mph 46.7 mph 43 % 0.0 in 207.0 W/m2 CLR
18:57 21.1 °F 8.1 °F 1014.4 in West 33.3 mph 33.3 mph 43 % 0.0 in 185.0 W/m2 CLR
19:02 20.6 °F 7.6 °F 1014.4 in SW 31.5 mph 31.5 mph 43 % 0.0 in 163.0 W/m2 CLR
19:07 20.6 °F 7.6 °F 1014.4 in WSW 46.3 mph 46.3 mph 43 % 0.0 in 146.0 W/m2 CLR
19:12 20.6 °F 7.6 °F 1014.4 in WSW 44.4 mph 44.4 mph 43 % 0.0 in 130.0 W/m2 CLR
19:17 20.6 °F 7.6 °F 1014.4 in West 31.5 mph 31.5 mph 43 % 0.0 in 116.0 W/m2 CLR
19:22 20.6 °F 7.6 °F 1014.4 in WSW 42.6 mph 42.6 mph 43 % 0.0 in 100.0 W/m2 CLR
19:27 20.6 °F 7.9 °F 1014.4 in SW 27.8 mph 27.8 mph 44 % 0.0 in 83.0 W/m2 CLR
19:32 20.6 °F 7.6 °F 1014.4 in WSW 20.9 mph 20.9 mph 43 % 0.0 in 69.0 W/m2 FEW
19:37 20.6 °F 7.6 °F 1014.4 in SW 35.2 mph 35.2 mph 43 % 0.0 in 53.0 W/m2 SCT
19:42 20.0 °F 7.1 °F 1014.4 in SSW 31.5 mph 31.5 mph 43 % 0.0 in 42.0 W/m2 SCT
19:47 20.0 °F 7.4 °F 1014.4 in SW 31.5 mph 31.5 mph 44 % 0.0 in 33.0 W/m2 BKN
19:52 20.0 °F 7.4 °F 1014.4 in SSW 11.1 mph 11.1 mph 44 % 0.0 in 18.0 W/m2 BKN
19:57 20.0 °F 7.4 °F 1014.4 in SW 18.5 mph 18.5 mph 44 % 0.0 in 14.0 W/m2 BKN
20:02 20.0 °F 7.7 °F 1014.4 in WSW 31.5 mph 31.5 mph 45 % 0.0 in 12.0 W/m2 BKN
20:07 20.0 °F 7.7 °F 1014.4 in SW 31.5 mph 31.5 mph 45 % 0.0 in 9.0 W/m2 BKN
20:12 19.4 °F 7.2 °F 1014.4 in SW 20.4 mph 20.4 mph 45 % 0.0 in 5.0 W/m2 OVC
20:17 19.4 °F 7.5 °F 1014.4 in SW 18.5 mph 18.5 mph 46 % 0.0 in 0.0 W/m2 OVC
20:22 19.4 °F 7.5 °F 1014.4 in SW 24.1 mph 24.1 mph 46 % 0.0 in 0.0 W/m2 OVC
20:27 18.9 °F 7.3 °F 1014.8 in WSW 24.1 mph 24.1 mph 47 % 0.0 in 0.0 W/m2 OVC
20:32 18.9 °F 7.3 °F 1014.8 in WSW 18.5 mph 18.5 mph 47 % 0.0 in 0.0 W/m2 CLR
20:37 18.9 °F 7.6 °F 1014.8 in SW 16.7 mph 16.7 mph 48 % 0.0 in 0.0 W/m2 CLR
20:42 18.9 °F 7.6 °F 1014.8 in SW 24.1 mph 24.1 mph 48 % 0.0 in 0.0 W/m2 CLR
20:47 18.3 °F 7.1 °F 1014.8 in SW 27.8 mph 27.8 mph 48 % 0.0 in 0.0 W/m2 CLR
20:52 18.9 °F 7.6 °F 1014.8 in WSW 29.6 mph 29.6 mph 48 % 0.0 in 0.0 W/m2 CLR
20:57 18.9 °F 7.6 °F 1015.1 in West 25.9 mph 25.9 mph 48 % 0.0 in 0.0 W/m2 CLR
20:58 18.9 °F 7.6 °F 1015.1 in WSW 24.1 mph 24.1 mph 48 % 0.0 in 0.0 W/m2 CLR
21:03 18.9 °F 7.6 °F 1015.1 in WSW 22.2 mph 22.2 mph 48 % 0.0 in 0.0 W/m2 CLR
21:08 18.3 °F 7.4 °F 1015.1 in SW 14.8 mph 14.8 mph 49 % 0.0 in 0.0 W/m2 CLR
21:13 18.3 °F 7.4 °F 1015.1 in SW 13.0 mph 13.0 mph 49 % 0.0 in 0.0 W/m2 CLR
21:18 18.3 °F 7.1 °F 1015.1 in Calm     48 % 0.0 in 0.0 W/m2 CLR
21:23 18.3 °F 7.1 °F 1015.1 in SSW 20.4 mph 20.4 mph 48 % 0.0 in 0.0 W/m2 CLR
21:28 18.3 °F 7.1 °F 1015.1 in SSW 16.7 mph 16.7 mph 48 % 0.0 in 0.0 W/m2 CLR
21:33 18.3 °F 7.1 °F 1015.1 in SW 18.5 mph 18.5 mph 48 % 0.0 in 0.0 W/m2 CLR
21:38 18.3 °F 7.1 °F 1015.1 in SW 20.4 mph 20.4 mph 48 % 0.0 in 0.0 W/m2 CLR
21:43 18.9 °F 7.6 °F 1015.1 in SW 16.7 mph 16.7 mph 48 % 0.0 in 0.0 W/m2 CLR
21:48 18.9 °F 7.6 °F 1015.5 in SW 24.1 mph 24.1 mph 48 % 0.0 in 0.0 W/m2 CLR
21:53 18.9 °F 7.6 °F 1015.5 in West 18.5 mph 18.5 mph 48 % 0.0 in 0.0 W/m2 CLR
21:58 18.9 °F 7.6 °F 1015.5 in WSW 25.9 mph 25.9 mph 48 % 0.0 in 0.0 W/m2 CLR
22:03 18.9 °F 7.6 °F 1015.5 in WSW 24.1 mph 24.1 mph 48 % 0.0 in 0.0 W/m2 CLR
22:08 18.9 °F 7.6 °F 1015.5 in WSW 37.0 mph 37.0 mph 48 % 0.0 in 0.0 W/m2 CLR
22:13 18.9 °F 7.6 °F 1015.5 in SW 25.9 mph 25.9 mph 48 % 0.0 in 0.0 W/m2 CLR
22:18 18.9 °F 7.9 °F 1015.5 in SW 13.0 mph 13.0 mph 49 % 0.0 in 0.0 W/m2 CLR
22:23 18.9 °F 7.9 °F 1015.5 in SW 25.9 mph 25.9 mph 49 % 0.0 in 0.0 W/m2 CLR
22:28 18.9 °F 8.2 °F 1015.5 in WSW 35.2 mph 35.2 mph 50 % 0.0 in 0.0 W/m2 CLR
22:33 18.9 °F 8.2 °F 1015.1 in SSW 37.0 mph 37.0 mph 50 % 0.0 in 0.0 W/m2 CLR
22:38 18.9 °F 8.2 °F 1015.5 in SW 27.4 mph 27.4 mph 50 % 0.0 in 0.0 W/m2 CLR
22:43 18.9 °F 8.2 °F 1015.5 in SW 20.4 mph 20.4 mph 50 % 0.0 in 0.0 W/m2 CLR
22:48 18.9 °F 8.5 °F 1015.5 in SSW 19.3 mph 19.3 mph 51 % 0.0 in 0.0 W/m2 CLR
22:54 18.9 °F 8.5 °F 1015.5 in SW 14.8 mph 14.8 mph 51 % 0.0 in 0.0 W/m2 CLR
22:59 18.9 °F 8.5 °F 1015.5 in SW 16.7 mph 16.7 mph 51 % 0.0 in 0.0 W/m2 CLR
23:04 18.9 °F 8.2 °F 1015.5 in SSW 18.5 mph 18.5 mph 50 % 0.0 in 0.0 W/m2 CLR
23:09 18.9 °F 8.5 °F 1015.5 in SSW 16.7 mph 16.7 mph 51 % 0.0 in 0.0 W/m2 CLR
23:14 18.3 °F 8.0 °F 1015.5 in SW 13.0 mph 15.1 mph 51 % 0.0 in 0.0 W/m2 CLR
23:19 18.3 °F 8.0 °F 1015.5 in SSW 14.8 mph 14.8 mph 51 % 0.0 in 0.0 W/m2 CLR
23:24 18.3 °F 8.0 °F 1015.5 in SW 18.5 mph 18.5 mph 51 % 0.0 in 0.0 W/m2 CLR
23:29 18.3 °F 8.0 °F 1015.5 in SW 22.2 mph 22.2 mph 51 % 0.0 in 0.0 W/m2 CLR
23:34 18.3 °F 8.0 °F 1015.8 in SSW 18.5 mph 18.5 mph 51 % 0.0 in 0.0 W/m2 CLR
23:39 18.3 °F 8.0 °F 1015.5 in SW 22.2 mph 22.2 mph 51 % 0.0 in 0.0 W/m2 CLR
23:44 18.3 °F 8.0 °F 1015.5 in SSW 22.2 mph 22.2 mph 51 % 0.0 in 0.0 W/m2 CLR
23:49 18.3 °F 8.0 °F 1015.5 in SSW 24.1 mph 24.1 mph 51 % 0.0 in 0.0 W/m2 CLR
23:54 18.3 °F 8.0 °F 1015.5 in SW 18.5 mph 18.5 mph 51 % 0.0 in 0.0 W/m2 CLR
23:59 18.3 °F 7.7 °F 1015.5 in SSW 16.7 mph 16.7 mph 50 % 0.0 in 0.0 W/m2 CLR
Lo Temps de Massalio
Compliments of Weather Underground - 1.25 mb